sensor_id;sensor_type;location;lat;lon;timestamp;temperature;humidity
65064;DHT22;51654;51.452;6.644;2022-08-01T00:00:03;17.90;82.70
65064;DHT22;51654;51.452;6.644;2022-08-01T00:02:34;17.90;82.80
65064;DHT22;51654;51.452;6.644;2022-08-01T00:05:01;17.90;82.80
65064;DHT22;51654;51.452;6.644;2022-08-01T00:07:28;17.90;82.90
65064;DHT22;51654;51.452;6.644;2022-08-01T00:09:54;17.80;82.90
65064;DHT22;51654;51.452;6.644;2022-08-01T00:12:21;17.80;82.90
65064;DHT22;51654;51.452;6.644;2022-08-01T00:14:48;17.80;83.00
65064;DHT22;51654;51.452;6.644;2022-08-01T00:17:15;17.80;82.90
65064;DHT22;51654;51.452;6.644;2022-08-01T00:19:42;17.80;83.00
65064;DHT22;51654;51.452;6.644;2022-08-01T00:22:08;17.90;83.10
65064;DHT22;51654;51.452;6.644;2022-08-01T00:24:35;17.90;83.00
65064;DHT22;51654;51.452;6.644;2022-08-01T00:27:02;18.00;82.80
65064;DHT22;51654;51.452;6.644;2022-08-01T00:29:29;18.00;82.70
65064;DHT22;51654;51.452;6.644;2022-08-01T00:32:16;18.10;82.40
65064;DHT22;51654;51.452;6.644;2022-08-01T00:34:43;18.10;82.20
65064;DHT22;51654;51.452;6.644;2022-08-01T00:37:09;18.20;82.00
65064;DHT22;51654;51.452;6.644;2022-08-01T00:39:41;18.10;81.70
65064;DHT22;51654;51.452;6.644;2022-08-01T00:42:09;18.10;81.60
65064;DHT22;51654;51.452;6.644;2022-08-01T00:44:36;18.00;81.70
65064;DHT22;51654;51.452;6.644;2022-08-01T00:47:03;18.00;81.70
65064;DHT22;51654;51.452;6.644;2022-08-01T00:49:30;18.00;81.80
65064;DHT22;51654;51.452;6.644;2022-08-01T00:51:57;17.90;81.90
65064;DHT22;51654;51.452;6.644;2022-08-01T00:54:25;17.90;82.10
65064;DHT22;51654;51.452;6.644;2022-08-01T00:56:52;17.90;82.10
65064;DHT22;51654;51.452;6.644;2022-08-01T00:59:21;17.90;82.20
65064;DHT22;51654;51.452;6.644;2022-08-01T01:01:48;17.80;82.30
65064;DHT22;51654;51.452;6.644;2022-08-01T01:04:16;17.80;82.40
65064;DHT22;51654;51.452;6.644;2022-08-01T01:09:31;17.70;82.40
65064;DHT22;51654;51.452;6.644;2022-08-01T01:14:53;17.70;82.70
65064;DHT22;51654;51.452;6.644;2022-08-01T01:17:23;17.60;82.70
65064;DHT22;51654;51.452;6.644;2022-08-01T01:20:12;17.60;82.80
65064;DHT22;51654;51.452;6.644;2022-08-01T01:27:47;17.50;82.80
65064;DHT22;51654;51.452;6.644;2022-08-01T01:30:17;17.50;82.90
65064;DHT22;51654;51.452;6.644;2022-08-01T01:32:45;17.60;82.90
65064;DHT22;51654;51.452;6.644;2022-08-01T01:35:23;17.50;82.90
65064;DHT22;51654;51.452;6.644;2022-08-01T01:37:56;17.50;83.00
65064;DHT22;51654;51.452;6.644;2022-08-01T01:40:24;17.60;83.00
65064;DHT22;51654;51.452;6.644;2022-08-01T01:42:52;17.50;83.00
65064;DHT22;51654;51.452;6.644;2022-08-01T01:45:19;17.60;83.10
65064;DHT22;51654;51.452;6.644;2022-08-01T01:47:47;17.60;83.00
65064;DHT22;51654;51.452;6.644;2022-08-01T01:50:14;17.60;82.90
65064;DHT22;51654;51.452;6.644;2022-08-01T01:52:42;17.60;82.90
65064;DHT22;51654;51.452;6.644;2022-08-01T01:55:10;17.60;82.90
65064;DHT22;51654;51.452;6.644;2022-08-01T01:57:39;17.50;83.00
65064;DHT22;51654;51.452;6.644;2022-08-01T02:00:07;17.50;83.00
65064;DHT22;51654;51.452;6.644;2022-08-01T02:02:35;17.50;83.00
65064;DHT22;51654;51.452;6.644;2022-08-01T02:05:04;17.60;83.00
65064;DHT22;51654;51.452;6.644;2022-08-01T02:07:31;17.60;83.00
65064;DHT22;51654;51.452;6.644;2022-08-01T02:09:58;17.60;83.00
65064;DHT22;51654;51.452;6.644;2022-08-01T02:12:26;17.60;82.90
65064;DHT22;51654;51.452;6.644;2022-08-01T02:14:55;17.60;82.90
65064;DHT22;51654;51.452;6.644;2022-08-01T02:17:23;17.60;83.00
65064;DHT22;51654;51.452;6.644;2022-08-01T02:19:51;17.60;83.00
65064;DHT22;51654;51.452;6.644;2022-08-01T02:22:19;17.60;83.00
65064;DHT22;51654;51.452;6.644;2022-08-01T02:27:42;17.60;82.90
65064;DHT22;51654;51.452;6.644;2022-08-01T02:30:12;17.60;83.00
65064;DHT22;51654;51.452;6.644;2022-08-01T02:32:47;17.60;83.00
65064;DHT22;51654;51.452;6.644;2022-08-01T02:35:23;17.60;83.00
65064;DHT22;51654;51.452;6.644;2022-08-01T02:37:51;17.50;83.00
65064;DHT22;51654;51.452;6.644;2022-08-01T02:40:19;17.60;83.00
65064;DHT22;51654;51.452;6.644;2022-08-01T02:42:48;17.50;83.10
65064;DHT22;51654;51.452;6.644;2022-08-01T02:45:17;17.60;83.10
65064;DHT22;51654;51.452;6.644;2022-08-01T02:47:44;17.60;83.10
65064;DHT22;51654;51.452;6.644;2022-08-01T02:50:12;17.60;83.10
65064;DHT22;51654;51.452;6.644;2022-08-01T02:52:40;17.60;83.20
65064;DHT22;51654;51.452;6.644;2022-08-01T02:55:08;17.70;83.30
65064;DHT22;51654;51.452;6.644;2022-08-01T02:57:35;17.70;83.30
65064;DHT22;51654;51.452;6.644;2022-08-01T03:00:17;17.70;83.30
65064;DHT22;51654;51.452;6.644;2022-08-01T03:02:44;17.70;83.40
65064;DHT22;51654;51.452;6.644;2022-08-01T03:05:12;17.70;83.40
65064;DHT22;51654;51.452;6.644;2022-08-01T03:07:40;17.70;83.50
65064;DHT22;51654;51.452;6.644;2022-08-01T03:10:08;17.70;83.50
65064;DHT22;51654;51.452;6.644;2022-08-01T03:12:35;17.70;83.50
65064;DHT22;51654;51.452;6.644;2022-08-01T03:15:04;17.70;83.60
65064;DHT22;51654;51.452;6.644;2022-08-01T03:17:31;17.70;83.60
65064;DHT22;51654;51.452;6.644;2022-08-01T03:19:58;17.70;83.60
65064;DHT22;51654;51.452;6.644;2022-08-01T03:22:26;17.70;83.60
65064;DHT22;51654;51.452;6.644;2022-08-01T03:24:54;17.70;83.50
65064;DHT22;51654;51.452;6.644;2022-08-01T03:27:22;17.70;83.50
65064;DHT22;51654;51.452;6.644;2022-08-01T03:29:51;17.70;83.50
65064;DHT22;51654;51.452;6.644;2022-08-01T03:32:18;17.70;83.50
65064;DHT22;51654;51.452;6.644;2022-08-01T03:34:45;17.70;83.50
65064;DHT22;51654;51.452;6.644;2022-08-01T03:37:19;17.60;83.50
65064;DHT22;51654;51.452;6.644;2022-08-01T03:40:08;17.60;83.50
65064;DHT22;51654;51.452;6.644;2022-08-01T03:42:42;17.70;83.50
65064;DHT22;51654;51.452;6.644;2022-08-01T03:45:15;17.70;83.50
65064;DHT22;51654;51.452;6.644;2022-08-01T03:47:45;17.70;83.40
65064;DHT22;51654;51.452;6.644;2022-08-01T03:50:13;17.70;83.30
65064;DHT22;51654;51.452;6.644;2022-08-01T03:52:41;17.70;83.20
65064;DHT22;51654;51.452;6.644;2022-08-01T03:55:09;17.70;83.20
65064;DHT22;51654;51.452;6.644;2022-08-01T03:57:37;17.70;83.20
65064;DHT22;51654;51.452;6.644;2022-08-01T04:00:05;17.70;83.20
65064;DHT22;51654;51.452;6.644;2022-08-01T04:02:40;17.60;83.20
65064;DHT22;51654;51.452;6.644;2022-08-01T04:05:08;17.70;83.20
65064;DHT22;51654;51.452;6.644;2022-08-01T04:07:35;17.70;83.10
65064;DHT22;51654;51.452;6.644;2022-08-01T04:10:10;17.70;83.00
65064;DHT22;51654;51.452;6.644;2022-08-01T04:12:37;17.70;83.00
65064;DHT22;51654;51.452;6.644;2022-08-01T04:15:04;17.70;82.90
65064;DHT22;51654;51.452;6.644;2022-08-01T04:17:31;17.70;82.90
65064;DHT22;51654;51.452;6.644;2022-08-01T04:19:58;17.70;82.90
65064;DHT22;51654;51.452;6.644;2022-08-01T04:22:25;17.70;82.80
65064;DHT22;51654;51.452;6.644;2022-08-01T04:24:53;17.70;82.80
65064;DHT22;51654;51.452;6.644;2022-08-01T04:27:27;17.70;82.80
65064;DHT22;51654;51.452;6.644;2022-08-01T04:30:22;17.70;82.80
65064;DHT22;51654;51.452;6.644;2022-08-01T04:32:51;17.70;82.70
65064;DHT22;51654;51.452;6.644;2022-08-01T04:35:18;17.70;82.70
65064;DHT22;51654;51.452;6.644;2022-08-01T04:38:06;17.70;82.70
65064;DHT22;51654;51.452;6.644;2022-08-01T04:40:34;17.70;82.60
65064;DHT22;51654;51.452;6.644;2022-08-01T04:43:02;17.70;82.60
65064;DHT22;51654;51.452;6.644;2022-08-01T04:45:29;17.70;82.50
65064;DHT22;51654;51.452;6.644;2022-08-01T04:47:56;17.70;82.40
65064;DHT22;51654;51.452;6.644;2022-08-01T04:50:23;17.70;82.30
65064;DHT22;51654;51.452;6.644;2022-08-01T04:52:51;17.80;82.10
65064;DHT22;51654;51.452;6.644;2022-08-01T04:55:18;17.80;82.00
65064;DHT22;51654;51.452;6.644;2022-08-01T04:57:45;17.80;82.00
65064;DHT22;51654;51.452;6.644;2022-08-01T05:00:13;17.80;81.90
65064;DHT22;51654;51.452;6.644;2022-08-01T05:02:39;17.90;81.90
65064;DHT22;51654;51.452;6.644;2022-08-01T05:05:06;17.90;81.80
65064;DHT22;51654;51.452;6.644;2022-08-01T05:07:33;17.90;81.80
65064;DHT22;51654;51.452;6.644;2022-08-01T05:10:11;17.80;81.70
65064;DHT22;51654;51.452;6.644;2022-08-01T05:12:38;17.80;81.70
65064;DHT22;51654;51.452;6.644;2022-08-01T05:15:05;17.80;81.60
65064;DHT22;51654;51.452;6.644;2022-08-01T05:17:40;17.70;81.60
65064;DHT22;51654;51.452;6.644;2022-08-01T05:20:09;17.70;81.50
65064;DHT22;51654;51.452;6.644;2022-08-01T05:22:36;17.70;81.50
65064;DHT22;51654;51.452;6.644;2022-08-01T05:25:03;17.70;81.50
65064;DHT22;51654;51.452;6.644;2022-08-01T05:27:31;17.70;81.30
65064;DHT22;51654;51.452;6.644;2022-08-01T05:29:59;17.80;81.30
65064;DHT22;51654;51.452;6.644;2022-08-01T05:32:26;17.80;81.30
65064;DHT22;51654;51.452;6.644;2022-08-01T05:34:53;17.80;81.20
65064;DHT22;51654;51.452;6.644;2022-08-01T05:37:20;17.90;81.10
65064;DHT22;51654;51.452;6.644;2022-08-01T05:39:47;17.90;81.00
65064;DHT22;51654;51.452;6.644;2022-08-01T05:42:13;17.90;80.90
65064;DHT22;51654;51.452;6.644;2022-08-01T05:44:40;17.90;80.80
65064;DHT22;51654;51.452;6.644;2022-08-01T05:47:07;17.90;80.80
65064;DHT22;51654;51.452;6.644;2022-08-01T05:49:34;18.00;80.70
65064;DHT22;51654;51.452;6.644;2022-08-01T05:52:00;18.00;80.70
65064;DHT22;51654;51.452;6.644;2022-08-01T05:54:29;18.10;80.40
65064;DHT22;51654;51.452;6.644;2022-08-01T05:56:55;18.20;80.10
65064;DHT22;51654;51.452;6.644;2022-08-01T05:59:26;18.30;79.80
65064;DHT22;51654;51.452;6.644;2022-08-01T06:01:53;18.40;79.50
65064;DHT22;51654;51.452;6.644;2022-08-01T06:04:20;18.40;79.20
65064;DHT22;51654;51.452;6.644;2022-08-01T06:06:46;18.40;78.90
65064;DHT22;51654;51.452;6.644;2022-08-01T06:09:13;18.50;78.60
65064;DHT22;51654;51.452;6.644;2022-08-01T06:11:40;18.50;78.30
65064;DHT22;51654;51.452;6.644;2022-08-01T06:14:07;18.60;77.90
65064;DHT22;51654;51.452;6.644;2022-08-01T06:16:34;18.70;77.70
65064;DHT22;51654;51.452;6.644;2022-08-01T06:19:00;18.80;77.50
65064;DHT22;51654;51.452;6.644;2022-08-01T06:21:27;18.90;77.20
65064;DHT22;51654;51.452;6.644;2022-08-01T06:23:54;19.00;76.90
65064;DHT22;51654;51.452;6.644;2022-08-01T06:26:21;19.20;76.60
65064;DHT22;51654;51.452;6.644;2022-08-01T06:28:48;19.20;76.10
65064;DHT22;51654;51.452;6.644;2022-08-01T06:31:14;19.30;75.70
65064;DHT22;51654;51.452;6.644;2022-08-01T06:33:42;19.40;75.50
65064;DHT22;51654;51.452;6.644;2022-08-01T06:36:08;19.40;75.40
65064;DHT22;51654;51.452;6.644;2022-08-01T06:38:35;19.70;75.10
65064;DHT22;51654;51.452;6.644;2022-08-01T06:41:02;20.00;74.30
65064;DHT22;51654;51.452;6.644;2022-08-01T06:43:29;20.30;73.40
65064;DHT22;51654;51.452;6.644;2022-08-01T06:45:57;20.60;72.20
65064;DHT22;51654;51.452;6.644;2022-08-01T06:48:24;21.10;71.30
65064;DHT22;51654;51.452;6.644;2022-08-01T06:50:50;21.50;69.50
65064;DHT22;51654;51.452;6.644;2022-08-01T06:53:37;21.60;68.50
65064;DHT22;51654;51.452;6.644;2022-08-01T06:56:04;21.70;67.40
65064;DHT22;51654;51.452;6.644;2022-08-01T06:58:32;21.70;67.00
65064;DHT22;51654;51.452;6.644;2022-08-01T07:01:00;21.70;67.30
65064;DHT22;51654;51.452;6.644;2022-08-01T07:03:28;22.00;66.60
65064;DHT22;51654;51.452;6.644;2022-08-01T07:06:14;22.00;66.30
65064;DHT22;51654;51.452;6.644;2022-08-01T07:08:41;22.00;66.20
65064;DHT22;51654;51.452;6.644;2022-08-01T07:11:08;22.10;65.90
65064;DHT22;51654;51.452;6.644;2022-08-01T07:13:35;22.20;65.40
65064;DHT22;51654;51.452;6.644;2022-08-01T07:16:14;22.10;64.90
65064;DHT22;51654;51.452;6.644;2022-08-01T07:18:41;22.00;64.90
65064;DHT22;51654;51.452;6.644;2022-08-01T07:21:08;21.80;65.00
65064;DHT22;51654;51.452;6.644;2022-08-01T07:23:55;21.60;65.20
65064;DHT22;51654;51.452;6.644;2022-08-01T07:26:22;21.40;65.30
65064;DHT22;51654;51.452;6.644;2022-08-01T07:28:49;21.20;65.60
65064;DHT22;51654;51.452;6.644;2022-08-01T07:31:16;21.00;65.90
65064;DHT22;51654;51.452;6.644;2022-08-01T07:33:43;20.90;66.20
65064;DHT22;51654;51.452;6.644;2022-08-01T07:36:15;20.90;66.70
65064;DHT22;51654;51.452;6.644;2022-08-01T07:38:42;21.40;66.30
65064;DHT22;51654;51.452;6.644;2022-08-01T07:41:09;21.90;65.40
65064;DHT22;51654;51.452;6.644;2022-08-01T07:43:36;22.60;64.60
65064;DHT22;51654;51.452;6.644;2022-08-01T07:46:04;23.20;62.20
65064;DHT22;51654;51.452;6.644;2022-08-01T07:48:31;23.40;61.50
65064;DHT22;51654;51.452;6.644;2022-08-01T07:51:05;23.30;61.30
65064;DHT22;51654;51.452;6.644;2022-08-01T07:53:32;23.00;61.30
65064;DHT22;51654;51.452;6.644;2022-08-01T07:55:59;22.80;61.30
65064;DHT22;51654;51.452;6.644;2022-08-01T07:58:31;22.50;61.70
65064;DHT22;51654;51.452;6.644;2022-08-01T08:00:58;22.60;62.10
65064;DHT22;51654;51.452;6.644;2022-08-01T08:03:25;22.70;61.40
65064;DHT22;51654;51.452;6.644;2022-08-01T08:05:52;22.60;61.40
65064;DHT22;51654;51.452;6.644;2022-08-01T08:08:26;22.50;61.50
65064;DHT22;51654;51.452;6.644;2022-08-01T08:10:53;22.50;61.40
65064;DHT22;51654;51.452;6.644;2022-08-01T08:13:20;22.50;61.10
65064;DHT22;51654;51.452;6.644;2022-08-01T08:15:47;22.90;60.50
65064;DHT22;51654;51.452;6.644;2022-08-01T08:18:15;23.30;59.10
65064;DHT22;51654;51.452;6.644;2022-08-01T08:20:42;23.70;58.60
65064;DHT22;51654;51.452;6.644;2022-08-01T08:23:08;24.40;57.20
65064;DHT22;51654;51.452;6.644;2022-08-01T08:26:10;25.00;55.70
65064;DHT22;51654;51.452;6.644;2022-08-01T08:28:37;25.40;53.80
65064;DHT22;51654;51.452;6.644;2022-08-01T08:31:06;25.60;53.20
65064;DHT22;51654;51.452;6.644;2022-08-01T08:33:51;26.10;52.40
65064;DHT22;51654;51.452;6.644;2022-08-01T08:36:18;26.30;51.50
65064;DHT22;51654;51.452;6.644;2022-08-01T08:38:45;26.10;51.00
65064;DHT22;51654;51.452;6.644;2022-08-01T08:41:12;25.90;51.00
65064;DHT22;51654;51.452;6.644;2022-08-01T08:43:46;25.60;51.20
65064;DHT22;51654;51.452;6.644;2022-08-01T08:46:14;25.40;51.80
65064;DHT22;51654;51.452;6.644;2022-08-01T08:48:41;25.40;51.80
65064;DHT22;51654;51.452;6.644;2022-08-01T08:51:10;25.70;51.30
65064;DHT22;51654;51.452;6.644;2022-08-01T08:53:41;26.00;50.90
65064;DHT22;51654;51.452;6.644;2022-08-01T08:56:14;26.10;50.60
65064;DHT22;51654;51.452;6.644;2022-08-01T08:58:44;26.20;49.90
65064;DHT22;51654;51.452;6.644;2022-08-01T09:01:12;26.40;49.40
65064;DHT22;51654;51.452;6.644;2022-08-01T09:03:40;26.50;49.20
65064;DHT22;51654;51.452;6.644;2022-08-01T09:06:07;26.50;49.30
65064;DHT22;51654;51.452;6.644;2022-08-01T09:08:36;26.50;48.80
65064;DHT22;51654;51.452;6.644;2022-08-01T09:11:03;26.40;49.20
65064;DHT22;51654;51.452;6.644;2022-08-01T09:13:30;26.40;48.90
65064;DHT22;51654;51.452;6.644;2022-08-01T09:15:57;26.50;48.70
65064;DHT22;51654;51.452;6.644;2022-08-01T09:18:38;26.80;47.60
65064;DHT22;51654;51.452;6.644;2022-08-01T09:21:08;26.90;47.20
65064;DHT22;51654;51.452;6.644;2022-08-01T09:26:27;27.20;46.80
65064;DHT22;51654;51.452;6.644;2022-08-01T09:28:56;27.40;45.80
65064;DHT22;51654;51.452;6.644;2022-08-01T09:31:27;27.50;45.60
65064;DHT22;51654;51.452;6.644;2022-08-01T09:34:04;27.50;45.70
65064;DHT22;51654;51.452;6.644;2022-08-01T09:36:49;27.60;45.40
65064;DHT22;51654;51.452;6.644;2022-08-01T09:39:34;27.60;45.50
65064;DHT22;51654;51.452;6.644;2022-08-01T09:42:24;27.90;45.00
65064;DHT22;51654;51.452;6.644;2022-08-01T09:44:54;27.80;44.80
65064;DHT22;51654;51.452;6.644;2022-08-01T09:47:21;27.50;44.60
65064;DHT22;51654;51.452;6.644;2022-08-01T09:49:58;27.20;45.10
65064;DHT22;51654;51.452;6.644;2022-08-01T09:52:35;26.80;45.00
65064;DHT22;51654;51.452;6.644;2022-08-01T09:55:11;26.40;45.40
65064;DHT22;51654;51.452;6.644;2022-08-01T09:57:38;26.10;45.50
65064;DHT22;51654;51.452;6.644;2022-08-01T10:00:21;26.00;45.50
65064;DHT22;51654;51.452;6.644;2022-08-01T10:03:21;25.70;46.10
65064;DHT22;51654;51.452;6.644;2022-08-01T10:05:50;25.40;46.80
65064;DHT22;51654;51.452;6.644;2022-08-01T10:08:18;25.10;47.30
65064;DHT22;51654;51.452;6.644;2022-08-01T10:11:09;24.80;47.90
65064;DHT22;51654;51.452;6.644;2022-08-01T10:13:46;24.70;48.60
65064;DHT22;51654;51.452;6.644;2022-08-01T10:16:27;25.00;48.70
65064;DHT22;51654;51.452;6.644;2022-08-01T10:18:58;25.50;48.60
65064;DHT22;51654;51.452;6.644;2022-08-01T10:21:40;25.90;48.10
65064;DHT22;51654;51.452;6.644;2022-08-01T10:24:25;26.20;47.40
65064;DHT22;51654;51.452;6.644;2022-08-01T10:27:08;26.40;47.30
65064;DHT22;51654;51.452;6.644;2022-08-01T10:30:04;26.40;47.10
65064;DHT22;51654;51.452;6.644;2022-08-01T10:32:47;26.30;47.20
65064;DHT22;51654;51.452;6.644;2022-08-01T10:35:16;26.30;46.80
65064;DHT22;51654;51.452;6.644;2022-08-01T10:38:04;26.10;47.00
65064;DHT22;51654;51.452;6.644;2022-08-01T10:40:31;25.90;47.50
65064;DHT22;51654;51.452;6.644;2022-08-01T10:42:58;25.50;48.20
65064;DHT22;51654;51.452;6.644;2022-08-01T10:45:25;25.20;48.90
65064;DHT22;51654;51.452;6.644;2022-08-01T10:50:48;24.70;50.60
65064;DHT22;51654;51.452;6.644;2022-08-01T10:53:16;24.50;50.70
65064;DHT22;51654;51.452;6.644;2022-08-01T10:58:36;24.30;51.40
65064;DHT22;51654;51.452;6.644;2022-08-01T11:03:44;24.20;52.10
65064;DHT22;51654;51.452;6.644;2022-08-01T11:06:24;24.30;52.30
65064;DHT22;51654;51.452;6.644;2022-08-01T11:08:53;24.60;52.10
65064;DHT22;51654;51.452;6.644;2022-08-01T11:11:20;24.90;51.20
65064;DHT22;51654;51.452;6.644;2022-08-01T11:16:25;25.20;50.30
65064;DHT22;51654;51.452;6.644;2022-08-01T11:18:52;25.30;49.40
65064;DHT22;51654;51.452;6.644;2022-08-01T11:21:19;25.30;49.30
65064;DHT22;51654;51.452;6.644;2022-08-01T11:24:06;25.30;49.40
65064;DHT22;51654;51.452;6.644;2022-08-01T11:26:35;25.40;49.30
65064;DHT22;51654;51.452;6.644;2022-08-01T11:29:15;25.30;49.40
65064;DHT22;51654;51.452;6.644;2022-08-01T11:31:47;25.30;49.70
65064;DHT22;51654;51.452;6.644;2022-08-01T11:34:15;25.30;49.50
65064;DHT22;51654;51.452;6.644;2022-08-01T11:36:42;25.20;49.50
65064;DHT22;51654;51.452;6.644;2022-08-01T11:39:24;25.20;49.70
65064;DHT22;51654;51.452;6.644;2022-08-01T11:41:51;25.30;49.60
65064;DHT22;51654;51.452;6.644;2022-08-01T11:44:21;25.40;49.80
65064;DHT22;51654;51.452;6.644;2022-08-01T11:47:03;25.50;50.00
65064;DHT22;51654;51.452;6.644;2022-08-01T11:49:48;25.70;49.30
65064;DHT22;51654;51.452;6.644;2022-08-01T11:52:27;26.00;48.60
65064;DHT22;51654;51.452;6.644;2022-08-01T11:57:29;26.60;47.00
65064;DHT22;51654;51.452;6.644;2022-08-01T12:00:03;26.80;45.90
65064;DHT22;51654;51.452;6.644;2022-08-01T12:02:40;26.80;45.10
65064;DHT22;51654;51.452;6.644;2022-08-01T12:05:11;26.70;45.30
65064;DHT22;51654;51.452;6.644;2022-08-01T12:07:41;26.60;45.00
65064;DHT22;51654;51.452;6.644;2022-08-01T12:10:10;26.50;45.20
65064;DHT22;51654;51.452;6.644;2022-08-01T12:12:40;26.40;45.50
65064;DHT22;51654;51.452;6.644;2022-08-01T12:15:08;26.40;46.00
65064;DHT22;51654;51.452;6.644;2022-08-01T12:17:36;26.40;45.80
65064;DHT22;51654;51.452;6.644;2022-08-01T12:20:04;26.50;45.60
65064;DHT22;51654;51.452;6.644;2022-08-01T12:22:32;26.50;45.50
65064;DHT22;51654;51.452;6.644;2022-08-01T12:25:12;26.30;46.10
65064;DHT22;51654;51.452;6.644;2022-08-01T12:27:40;26.10;46.60
65064;DHT22;51654;51.452;6.644;2022-08-01T12:30:09;25.90;47.00
65064;DHT22;51654;51.452;6.644;2022-08-01T12:32:37;25.60;47.30
65064;DHT22;51654;51.452;6.644;2022-08-01T12:35:08;25.40;47.80
65064;DHT22;51654;51.452;6.644;2022-08-01T12:37:36;25.40;48.30
65064;DHT22;51654;51.452;6.644;2022-08-01T12:40:09;25.50;48.30
65064;DHT22;51654;51.452;6.644;2022-08-01T12:42:37;25.70;48.00
65064;DHT22;51654;51.452;6.644;2022-08-01T12:45:07;25.90;47.70
65064;DHT22;51654;51.452;6.644;2022-08-01T12:47:35;26.20;46.90
65064;DHT22;51654;51.452;6.644;2022-08-01T12:50:02;26.40;46.00
65064;DHT22;51654;51.452;6.644;2022-08-01T12:52:29;26.40;45.00
65064;DHT22;51654;51.452;6.644;2022-08-01T12:57:27;26.20;45.70
65064;DHT22;51654;51.452;6.644;2022-08-01T13:02:34;26.20;45.40
65064;DHT22;51654;51.452;6.644;2022-08-01T13:05:02;26.30;45.50
65064;DHT22;51654;51.452;6.644;2022-08-01T13:07:36;26.30;45.20
65064;DHT22;51654;51.452;6.644;2022-08-01T13:10:11;26.20;45.30
65064;DHT22;51654;51.452;6.644;2022-08-01T13:12:39;26.10;45.60
65064;DHT22;51654;51.452;6.644;2022-08-01T13:15:20;26.00;45.90
65064;DHT22;51654;51.452;6.644;2022-08-01T13:17:47;26.00;45.90
65064;DHT22;51654;51.452;6.644;2022-08-01T13:20:21;26.20;45.60
65064;DHT22;51654;51.452;6.644;2022-08-01T13:22:47;26.40;45.30
65064;DHT22;51654;51.452;6.644;2022-08-01T13:25:26;26.50;45.30
65064;DHT22;51654;51.452;6.644;2022-08-01T13:30:50;26.60;45.00
65064;DHT22;51654;51.452;6.644;2022-08-01T13:33:16;26.70;44.90
65064;DHT22;51654;51.452;6.644;2022-08-01T13:35:43;26.60;44.50
65064;DHT22;51654;51.452;6.644;2022-08-01T13:38:10;26.50;44.70
65064;DHT22;51654;51.452;6.644;2022-08-01T13:40:37;26.50;44.90
65064;DHT22;51654;51.452;6.644;2022-08-01T13:43:04;26.40;44.90
65064;DHT22;51654;51.452;6.644;2022-08-01T13:45:31;26.20;44.90
65064;DHT22;51654;51.452;6.644;2022-08-01T13:47:58;26.00;45.10
65064;DHT22;51654;51.452;6.644;2022-08-01T13:50:38;26.00;45.30
65064;DHT22;51654;51.452;6.644;2022-08-01T13:53:04;25.70;45.60
65064;DHT22;51654;51.452;6.644;2022-08-01T13:55:31;25.50;46.00
65064;DHT22;51654;51.452;6.644;2022-08-01T13:58:01;25.40;46.30
65064;DHT22;51654;51.452;6.644;2022-08-01T14:00:28;25.40;46.70
65064;DHT22;51654;51.452;6.644;2022-08-01T14:02:55;25.30;46.90
65064;DHT22;51654;51.452;6.644;2022-08-01T14:05:22;25.20;47.20
65064;DHT22;51654;51.452;6.644;2022-08-01T14:07:48;25.20;47.30
65064;DHT22;51654;51.452;6.644;2022-08-01T14:10:22;25.20;47.10
65064;DHT22;51654;51.452;6.644;2022-08-01T14:12:49;25.10;47.20
65064;DHT22;51654;51.452;6.644;2022-08-01T14:15:17;25.10;47.40
65064;DHT22;51654;51.452;6.644;2022-08-01T14:18:04;25.10;47.30
65064;DHT22;51654;51.452;6.644;2022-08-01T14:20:34;25.00;47.30
65064;DHT22;51654;51.452;6.644;2022-08-01T14:23:01;25.00;47.20
65064;DHT22;51654;51.452;6.644;2022-08-01T14:25:28;25.00;47.20
65064;DHT22;51654;51.452;6.644;2022-08-01T14:28:15;25.00;47.40
65064;DHT22;51654;51.452;6.644;2022-08-01T14:30:42;25.00;47.40
65064;DHT22;51654;51.452;6.644;2022-08-01T14:33:13;25.00;47.30
65064;DHT22;51654;51.452;6.644;2022-08-01T14:35:41;25.00;47.10
65064;DHT22;51654;51.452;6.644;2022-08-01T14:38:28;25.00;47.10
65064;DHT22;51654;51.452;6.644;2022-08-01T14:40:59;25.10;47.20
65064;DHT22;51654;51.452;6.644;2022-08-01T14:43:26;25.20;47.20
65064;DHT22;51654;51.452;6.644;2022-08-01T14:45:59;25.20;47.10
65064;DHT22;51654;51.452;6.644;2022-08-01T14:48:26;25.20;47.10
65064;DHT22;51654;51.452;6.644;2022-08-01T14:50:52;25.20;47.10
65064;DHT22;51654;51.452;6.644;2022-08-01T14:53:19;25.20;46.80
65064;DHT22;51654;51.452;6.644;2022-08-01T14:55:46;25.20;46.50
65064;DHT22;51654;51.452;6.644;2022-08-01T14:58:13;25.20;46.70
65064;DHT22;51654;51.452;6.644;2022-08-01T15:00:41;25.20;46.50
65064;DHT22;51654;51.452;6.644;2022-08-01T15:03:08;25.40;46.30
65064;DHT22;51654;51.452;6.644;2022-08-01T15:05:35;25.40;45.80
65064;DHT22;51654;51.452;6.644;2022-08-01T15:08:03;25.40;45.80
65064;DHT22;51654;51.452;6.644;2022-08-01T15:10:29;25.40;45.80
65064;DHT22;51654;51.452;6.644;2022-08-01T15:12:58;25.20;45.70
65064;DHT22;51654;51.452;6.644;2022-08-01T15:15:26;25.20;46.20
65064;DHT22;51654;51.452;6.644;2022-08-01T15:17:53;25.20;46.10
65064;DHT22;51654;51.452;6.644;2022-08-01T15:20:20;25.20;46.00
65064;DHT22;51654;51.452;6.644;2022-08-01T15:22:47;25.20;46.00
65064;DHT22;51654;51.452;6.644;2022-08-01T15:25:14;25.20;45.90
65064;DHT22;51654;51.452;6.644;2022-08-01T15:27:41;25.20;45.70
65064;DHT22;51654;51.452;6.644;2022-08-01T15:30:08;25.10;45.70
65064;DHT22;51654;51.452;6.644;2022-08-01T15:32:35;25.00;45.80
65064;DHT22;51654;51.452;6.644;2022-08-01T15:35:02;24.90;46.00
65064;DHT22;51654;51.452;6.644;2022-08-01T15:37:29;24.80;45.90
65064;DHT22;51654;51.452;6.644;2022-08-01T15:39:56;24.80;46.00
65064;DHT22;51654;51.452;6.644;2022-08-01T15:42:24;24.70;46.20
65064;DHT22;51654;51.452;6.644;2022-08-01T15:44:53;24.70;46.30
65064;DHT22;51654;51.452;6.644;2022-08-01T15:47:20;24.70;46.40
65064;DHT22;51654;51.452;6.644;2022-08-01T15:49:50;24.60;46.30
65064;DHT22;51654;51.452;6.644;2022-08-01T15:52:18;24.50;46.10
65064;DHT22;51654;51.452;6.644;2022-08-01T15:54:48;24.40;46.40
65064;DHT22;51654;51.452;6.644;2022-08-01T15:57:14;24.30;46.60
65064;DHT22;51654;51.452;6.644;2022-08-01T15:59:41;24.20;46.80
65064;DHT22;51654;51.452;6.644;2022-08-01T16:02:08;24.10;47.00
65064;DHT22;51654;51.452;6.644;2022-08-01T16:04:40;24.10;47.30
65064;DHT22;51654;51.452;6.644;2022-08-01T16:07:07;24.00;47.50
65064;DHT22;51654;51.452;6.644;2022-08-01T16:09:34;24.00;47.30
65064;DHT22;51654;51.452;6.644;2022-08-01T16:12:01;24.00;47.50
65064;DHT22;51654;51.452;6.644;2022-08-01T16:14:27;24.10;47.70
65064;DHT22;51654;51.452;6.644;2022-08-01T16:16:54;24.20;47.60
65064;DHT22;51654;51.452;6.644;2022-08-01T16:19:21;24.30;47.40
65064;DHT22;51654;51.452;6.644;2022-08-01T16:21:49;24.40;47.00
65064;DHT22;51654;51.452;6.644;2022-08-01T16:24:17;24.40;46.50